Time;durP1;ratioP1;P1;durP2;ratioP2;P2;SDS_P1;SDS_P2;PMS_P1;PMS_P2;Temp;Humidity;BMP_temperature;BMP_pressure;BME280_temperature;BME280_humidity;BME280_pressure;Samples;Min_cycle;Max_cycle;Signal;HPM_P1;HPM_P2
2021/12/28 00:00:00;;;;;;;2.63;2.42;;;21.60;49.60;;;;;;4960871;28;20201;-69
2021/12/28 00:02:26;;;;;;;3.15;2.85;;;21.60;49.60;;;;;;4958066;29;20182;-69
2021/12/28 00:04:52;;;;;;;3.00;2.70;;;21.60;49.60;;;;;;4939703;29;20245;-69
2021/12/28 00:07:18;;;;;;;3.13;2.63;;;21.60;49.60;;;;;;4965249;28;20658;-69
2021/12/28 00:09:44;;;;;;;3.00;2.58;;;21.60;49.60;;;;;;4949124;29;20709;-69
2021/12/28 00:12:10;;;;;;;3.72;2.75;;;21.60;49.60;;;;;;4949281;28;20190;-69
2021/12/28 00:14:38;;;;;;;2.78;2.50;;;21.60;49.60;;;;;;4976554;28;20285;-69
2021/12/28 00:19:49;;;;;;;2.97;2.67;;;21.60;49.60;;;;;;4967964;28;20245;-69
2021/12/28 00:22:15;;;;;;;3.20;2.63;;;21.60;49.60;;;;;;4947616;29;20198;-69
2021/12/28 00:24:42;;;;;;;3.10;2.80;;;21.60;49.60;;;;;;4955721;29;20226;-69
2021/12/28 00:27:08;;;;;;;3.20;2.45;;;21.60;49.60;;;;;;4955208;28;20578;-69
2021/12/28 00:29:34;;;;;;;3.15;2.75;;;21.60;49.60;;;;;;4955682;29;20221;-69
2021/12/28 00:32:01;;;;;;;2.85;2.35;;;21.60;49.60;;;;;;4971631;28;20274;-69
2021/12/28 00:34:26;;;;;;;2.90;2.55;;;21.60;49.50;;;;;;4971203;28;20210;-69
2021/12/28 00:36:52;;;;;;;3.75;2.78;;;21.60;49.50;;;;;;4970926;28;20563;-69
2021/12/28 00:39:18;;;;;;;2.65;2.45;;;21.60;49.60;;;;;;4971007;28;20217;-69
2021/12/28 00:41:44;;;;;;;3.58;2.80;;;21.60;49.50;;;;;;4970933;28;20206;-69
2021/12/28 00:44:09;;;;;;;2.85;2.38;;;21.60;49.50;;;;;;4971457;28;20195;-69
2021/12/28 00:46:35;;;;;;;2.90;2.45;;;21.60;49.40;;;;;;4954814;29;20237;-69
2021/12/28 00:49:01;;;;;;;2.63;2.38;;;21.60;49.50;;;;;;4968136;28;20214;-69
2021/12/28 00:51:27;;;;;;;2.45;2.10;;;21.60;49.40;;;;;;4969641;28;20183;-69
2021/12/28 00:53:53;;;;;;;2.58;2.38;;;21.60;49.50;;;;;;4939047;29;20182;-69
2021/12/28 00:56:18;;;;;;;2.92;2.25;;;21.60;49.50;;;;;;4954672;29;20225;-69
2021/12/28 00:58:44;;;;;;;2.40;2.20;;;21.60;49.50;;;;;;4954864;29;20194;-69
2021/12/28 01:01:10;;;;;;;2.60;2.40;;;21.60;49.50;;;;;;4938799;29;20187;-69
2021/12/28 01:03:38;;;;;;;2.33;2.00;;;21.60;49.50;;;;;;4946134;29;20190;-69
2021/12/28 01:06:06;;;;;;;2.58;2.13;;;21.60;49.50;;;;;;4938151;29;20210;-68
2021/12/28 01:08:32;;;;;;;2.95;2.28;;;21.60;49.50;;;;;;4938500;29;20229;-69
2021/12/28 01:10:59;;;;;;;2.40;2.20;;;21.60;49.40;;;;;;4938302;29;20183;-69
2021/12/28 01:13:26;;;;;;;2.55;2.30;;;21.60;49.50;;;;;;4954344;29;20194;-69
2021/12/28 01:15:53;;;;;;;2.65;2.40;;;21.60;49.50;;;;;;4938012;29;20203;-69
2021/12/28 01:18:21;;;;;;;3.03;2.60;;;21.60;49.40;;;;;;4938156;28;20205;-69
2021/12/28 01:20:47;;;;;;;2.20;1.98;;;21.60;49.50;;;;;;4940882;29;20282;-69
2021/12/28 01:23:13;;;;;;;2.83;2.25;;;21.60;49.50;;;;;;4944850;29;20286;-69
2021/12/28 01:25:40;;;;;;;2.25;2.00;;;21.60;49.50;;;;;;4969830;28;20213;-69
2021/12/28 01:28:07;;;;;;;2.15;1.95;;;21.60;49.50;;;;;;4954086;29;20218;-69
2021/12/28 01:30:33;;;;;;;2.40;2.20;;;21.60;49.40;;;;;;4953995;29;20217;-69
2021/12/28 01:33:01;;;;;;;2.20;2.00;;;21.60;49.40;;;;;;4953877;29;20178;-69
2021/12/28 01:35:32;;;;;;;2.33;2.00;;;21.60;49.40;;;;;;4953429;28;20210;-69
2021/12/28 01:37:59;;;;;;;2.53;2.08;;;21.60;49.40;;;;;;4953604;28;20192;-69
2021/12/28 01:40:32;;;;;;;2.90;2.20;;;21.60;49.40;;;;;;4953685;29;20262;-69
2021/12/28 01:43:12;;;;;;;2.17;1.98;;;21.60;49.40;;;;;;4970035;28;20343;-69
2021/12/28 01:45:49;;;;;;;2.80;2.17;;;21.60;49.50;;;;;;4953197;28;20237;-69
2021/12/28 01:48:25;;;;;;;1.95;1.85;;;21.60;49.40;;;;;;4953643;29;20221;-69
2021/12/28 01:50:56;;;;;;;2.97;2.38;;;21.60;49.40;;;;;;4946429;29;20194;-69
2021/12/28 01:53:23;;;;;;;2.20;1.98;;;21.60;49.40;;;;;;4922035;29;20187;-69
2021/12/28 01:55:55;;;;;;;2.35;2.15;;;21.60;49.40;;;;;;4921047;29;20228;-69
2021/12/28 01:58:21;;;;;;;2.35;2.15;;;21.60;49.40;;;;;;4954618;29;20233;-69
2021/12/28 02:00:50;;;;;;;2.88;2.15;;;21.60;49.40;;;;;;4954709;29;20189;-69
2021/12/28 02:03:20;;;;;;;2.40;2.13;;;21.60;49.40;;;;;;4937576;29;20634;-69
2021/12/28 02:05:47;;;;;;;2.40;2.10;;;21.60;49.40;;;;;;4937455;29;20214;-69
2021/12/28 02:08:13;;;;;;;2.33;1.92;;;21.60;49.40;;;;;;4937524;29;20211;-69
2021/12/28 02:10:42;;;;;;;2.20;2.00;;;21.60;49.40;;;;;;4953382;29;20245;-69
2021/12/28 02:13:07;;;;;;;2.47;1.80;;;21.60;49.40;;;;;;4954568;29;20182;-69
2021/12/28 02:15:36;;;;;;;2.20;2.00;;;21.60;49.40;;;;;;4937377;29;20221;-69
2021/12/28 02:18:09;;;;;;;2.38;1.98;;;21.60;49.40;;;;;;4937127;29;20665;-69
2021/12/28 02:20:37;;;;;;;2.72;2.13;;;21.60;50.00;;;;;;4960883;28;20206;-69
2021/12/28 02:23:04;;;;;;;2.22;2.03;;;21.60;49.40;;;;;;4937235;29;20182;-69
2021/12/28 02:25:31;;;;;;;1.77;1.67;;;21.60;49.40;;;;;;4953140;29;20206;-69
2021/12/28 02:27:58;;;;;;;2.13;1.80;;;21.60;49.40;;;;;;4969536;28;20189;-69
2021/12/28 02:30:25;;;;;;;1.90;1.65;;;21.60;49.40;;;;;;4970961;28;20186;-69
2021/12/28 02:32:51;;;;;;;2.92;2.17;;;21.60;49.40;;;;;;4961092;28;20179;-69
2021/12/28 02:35:22;;;;;;;3.08;2.28;;;21.60;49.40;;;;;;4959699;28;20213;-69
2021/12/28 02:37:49;;;;;;;2.40;2.00;;;21.60;49.40;;;;;;4959478;29;20193;-69
2021/12/28 02:40:20;;;;;;;2.83;2.03;;;21.60;49.40;;;;;;4959918;29;20209;-69
2021/12/28 02:42:48;;;;;;;2.38;2.00;;;21.60;49.40;;;;;;4975538;28;20190;-69
2021/12/28 02:45:45;;;;;;;2.33;1.90;;;21.60;49.40;;;;;;4959533;28;20357;-69
2021/12/28 02:48:11;;;;;;;2.58;2.00;;;21.60;49.40;;;;;;4943649;29;20240;-69
2021/12/28 02:50:43;;;;;;;2.13;1.92;;;21.60;50.00;;;;;;4940392;29;20633;-69
2021/12/28 02:53:11;;;;;;;1.63;1.52;;;21.60;49.40;;;;;;4959175;29;20207;-69
2021/12/28 02:55:39;;;;;;;2.03;1.83;;;21.60;49.40;;;;;;4943364;29;20206;-69
2021/12/28 02:58:10;;;;;;;2.22;1.77;;;21.60;49.40;;;;;;4975495;28;20657;-69
2021/12/28 03:00:52;;;;;;;1.90;1.63;;;21.60;49.40;;;;;;4959312;29;20190;-69
2021/12/28 03:03:21;;;;;;;2.00;1.75;;;21.60;49.40;;;;;;4959345;28;20201;-69
2021/12/28 03:05:51;;;;;;;2.13;1.88;;;21.60;49.40;;;;;;4943252;29;20210;-69
2021/12/28 03:08:21;;;;;;;2.50;2.00;;;21.60;49.40;;;;;;4943379;29;20215;-69
2021/12/28 03:10:48;;;;;;;2.55;2.10;;;21.60;49.40;;;;;;4943303;28;20624;-69
2021/12/28 03:13:24;;;;;;;2.70;2.20;;;21.60;49.40;;;;;;4958616;28;20190;-69
2021/12/28 03:15:50;;;;;;;2.08;1.88;;;21.60;49.40;;;;;;4946834;28;20677;-69
2021/12/28 03:18:17;;;;;;;1.83;1.70;;;21.60;49.40;;;;;;4960158;28;20230;-69
2021/12/28 03:20:43;;;;;;;2.58;1.92;;;21.60;49.40;;;;;;4948250;28;20241;-69
2021/12/28 03:23:12;;;;;;;1.60;1.50;;;21.60;49.40;;;;;;4958139;28;20194;-69
2021/12/28 03:25:38;;;;;;;2.00;1.80;;;21.60;49.40;;;;;;4943456;29;20210;-69
2021/12/28 03:28:04;;;;;;;1.85;1.75;;;21.60;49.40;;;;;;4964765;28;20241;-69
2021/12/28 03:30:30;;;;;;;2.00;1.60;;;21.60;49.40;;;;;;4966620;28;20186;-69
2021/12/28 03:32:56;;;;;;;1.70;1.60;;;21.60;49.40;;;;;;4956501;29;20178;-69
2021/12/28 03:35:21;;;;;;;1.67;1.40;;;21.60;49.40;;;;;;4927339;29;20236;-69
2021/12/28 03:37:47;;;;;;;1.63;1.52;;;21.60;49.40;;;;;;4943662;29;20302;-69
2021/12/28 03:40:15;;;;;;;1.60;1.50;;;21.60;49.40;;;;;;4927786;29;20277;-69
2021/12/28 03:42:42;;;;;;;1.88;1.60;;;21.60;49.40;;;;;;4941200;29;20186;-69
2021/12/28 03:45:10;;;;;;;1.50;1.40;;;21.60;49.40;;;;;;4940371;29;20286;-69
2021/12/28 03:47:37;;;;;;;1.52;1.40;;;21.60;49.40;;;;;;4921511;29;20202;-69
2021/12/28 03:50:08;;;;;;;2.38;1.60;;;21.60;49.40;;;;;;4930235;29;20214;-69
2021/12/28 03:52:35;;;;;;;1.63;1.48;;;21.60;49.40;;;;;;4956816;29;20186;-69
2021/12/28 03:55:00;;;;;;;2.05;1.85;;;21.60;49.40;;;;;;4935764;29;20280;-69
2021/12/28 03:57:26;;;;;;;1.73;1.63;;;21.60;49.40;;;;;;4905303;29;20231;-69
2021/12/28 03:59:52;;;;;;;2.15;1.70;;;21.60;49.40;;;;;;4944555;29;20196;-69
2021/12/28 04:02:18;;;;;;;2.83;1.90;;;21.60;49.40;;;;;;4948106;29;20197;-69
2021/12/28 04:04:43;;;;;;;1.30;1.20;;;21.60;49.40;;;;;;4972373;28;20186;-69
2021/12/28 04:07:13;;;;;;;1.67;1.58;;;21.60;49.40;;;;;;4972240;28;20194;-69
2021/12/28 04:12:22;;;;;;;1.48;1.38;;;21.60;49.40;;;;;;4972320;28;20190;-69
2021/12/28 04:14:48;;;;;;;2.00;1.60;;;21.60;49.40;;;;;;4956278;29;20191;-69
2021/12/28 04:17:15;;;;;;;1.60;1.50;;;21.60;49.40;;;;;;4972027;28;20191;-69
2021/12/28 04:19:41;;;;;;;1.55;1.45;;;21.60;49.40;;;;;;4956612;29;20273;-69
2021/12/28 04:22:07;;;;;;;1.85;1.48;;;21.60;49.40;;;;;;4956557;29;20205;-69
2021/12/28 04:24:34;;;;;;;1.63;1.48;;;21.60;49.40;;;;;;4956795;29;20261;-69
2021/12/28 04:27:00;;;;;;;1.83;1.50;;;21.60;49.40;;;;;;4942087;29;20243;-69
2021/12/28 04:29:26;;;;;;;1.50;1.40;;;21.60;49.40;;;;;;4934108;29;20222;-69
2021/12/28 04:31:52;;;;;;;1.58;1.40;;;21.60;49.40;;;;;;4931912;29;20179;-69
2021/12/28 04:34:18;;;;;;;1.98;1.77;;;21.60;49.40;;;;;;4956964;29;20182;-69
2021/12/28 04:36:44;;;;;;;1.40;1.30;;;21.60;49.40;;;;;;4939632;29;20712;-69
2021/12/28 04:39:10;;;;;;;1.48;1.38;;;21.60;49.40;;;;;;4956310;29;20179;-69
2021/12/28 04:41:36;;;;;;;1.60;1.38;;;21.60;49.40;;;;;;4939185;29;20197;-69
2021/12/28 04:44:03;;;;;;;1.73;1.63;;;21.60;49.50;;;;;;4939450;29;20187;-69
2021/12/28 04:46:30;;;;;;;1.58;1.45;;;21.60;49.50;;;;;;4938808;29;20218;-69
2021/12/28 04:48:57;;;;;;;1.70;1.52;;;21.60;49.50;;;;;;4943869;29;20199;-69
2021/12/28 04:51:23;;;;;;;2.00;1.80;;;21.60;49.50;;;;;;4955403;29;20234;-69
2021/12/28 04:53:56;;;;;;;1.98;1.60;;;21.60;49.50;;;;;;4937845;29;20183;-69
2021/12/28 04:56:23;;;;;;;2.00;1.50;;;21.50;49.40;;;;;;4954565;29;20206;-69
2021/12/28 04:58:49;;;;;;;1.80;1.50;;;21.60;49.40;;;;;;4951566;29;20227;-69
2021/12/28 05:01:15;;;;;;;1.92;1.50;;;21.60;49.40;;;;;;4945803;29;20195;-69
2021/12/28 05:03:40;;;;;;;1.05;1.02;;;21.50;49.40;;;;;;4970697;28;20208;-69
2021/12/28 05:06:06;;;;;;;1.75;1.30;;;21.60;49.40;;;;;;4954391;29;20265;-72
2021/12/28 05:08:32;;;;;;;1.42;1.33;;;21.60;49.40;;;;;;4933021;29;20210;-71
2021/12/28 05:10:59;;;;;;;1.45;1.35;;;21.60;49.40;;;;;;4954344;29;20195;-71
2021/12/28 05:13:24;;;;;;;1.55;1.45;;;21.60;49.50;;;;;;4937888;29;20190;-71
2021/12/28 05:15:52;;;;;;;1.60;1.50;;;21.60;49.40;;;;;;4954922;29;20214;-69
2021/12/28 05:18:19;;;;;;;1.70;1.20;;;21.60;49.50;;;;;;4938389;29;20202;-69
2021/12/28 05:20:46;;;;;;;1.30;1.20;;;21.60;49.50;;;;;;4954102;29;20198;-69
2021/12/28 05:23:13;;;;;;;1.35;1.25;;;21.60;49.50;;;;;;4955641;29;20183;-69
2021/12/28 05:25:39;;;;;;;1.58;1.33;;;21.60;49.40;;;;;;4953955;29;20217;-70
2021/12/28 05:28:06;;;;;;;1.20;1.10;;;21.60;49.40;;;;;;4922270;29;20199;-71
2021/12/28 05:30:34;;;;;;;1.50;1.40;;;21.60;49.40;;;;;;4925797;29;20218;-71
2021/12/28 05:33:01;;;;;;;1.63;1.40;;;21.60;49.40;;;;;;4956552;28;20186;-72
2021/12/28 05:35:27;;;;;;;1.35;1.25;;;21.60;49.40;;;;;;4953480;29;20289;-71
2021/12/28 05:37:52;;;;;;;1.42;1.33;;;21.60;49.40;;;;;;4953879;29;20277;-71
2021/12/28 05:40:18;;;;;;;1.00;0.98;;;21.60;49.40;;;;;;4954060;29;20187;-72
2021/12/28 05:42:44;;;;;;;2.13;1.30;;;21.60;49.40;;;;;;4937970;29;20390;-71
2021/12/28 05:45:10;;;;;;;1.20;1.10;;;21.60;49.40;;;;;;4937750;29;20214;-71
2021/12/28 05:47:37;;;;;;;1.63;1.27;;;21.60;49.40;;;;;;4953663;29;20190;-71
2021/12/28 05:50:08;;;;;;;1.05;0.98;;;21.60;49.40;;;;;;4967279;28;20222;-71
2021/12/28 05:52:34;;;;;;;1.30;1.20;;;21.60;49.40;;;;;;4953560;28;20183;-72
2021/12/28 05:55:00;;;;;;;1.25;1.15;;;21.60;49.40;;;;;;4969358;28;20245;-72
2021/12/28 05:57:25;;;;;;;0.85;0.85;;;21.60;49.40;;;;;;4953988;28;20191;-72
2021/12/28 05:59:52;;;;;;;1.25;1.08;;;21.60;49.40;;;;;;4942994;28;20216;-71
2021/12/28 06:02:18;;;;;;;1.88;1.02;;;21.60;49.40;;;;;;4961304;28;20210;-72
2021/12/28 06:04:44;;;;;;;1.33;1.23;;;21.60;49.40;;;;;;4937004;28;20199;-72
2021/12/28 06:07:10;;;;;;;1.85;1.38;;;21.60;49.40;;;;;;4953442;29;20293;-72
2021/12/28 06:09:35;;;;;;;1.10;1.00;;;21.60;49.40;;;;;;4937789;29;20297;-72
2021/12/28 06:12:01;;;;;;;1.30;1.20;;;21.60;49.50;;;;;;4937651;29;20187;-72
2021/12/28 06:14:27;;;;;;;1.10;1.00;;;21.60;49.50;;;;;;4937465;29;20194;-71
2021/12/28 06:16:54;;;;;;;1.00;1.00;;;21.60;49.50;;;;;;4950398;29;20218;-71
2021/12/28 06:19:19;;;;;;;0.98;0.98;;;21.60;49.50;;;;;;4953015;29;20281;-71
2021/12/28 06:21:45;;;;;;;1.45;1.15;;;21.60;49.50;;;;;;4921953;29;20341;-72
2021/12/28 06:24:11;;;;;;;1.42;1.30;;;21.60;49.50;;;;;;4937811;29;20219;-72
2021/12/28 06:26:37;;;;;;;1.27;1.17;;;21.60;49.50;;;;;;4928321;29;20297;-71
2021/12/28 06:29:07;;;;;;;1.23;1.00;;;21.60;49.50;;;;;;4940726;29;20214;-72
2021/12/28 06:31:34;;;;;;;1.00;1.00;;;21.60;49.50;;;;;;4942099;29;20183;-72
2021/12/28 06:34:02;;;;;;;1.13;1.00;;;21.60;49.60;;;;;;4902503;29;20195;-72
2021/12/28 06:36:29;;;;;;;0.95;0.95;;;21.60;49.60;;;;;;4902514;29;20241;-72
2021/12/28 06:38:56;;;;;;;1.13;1.02;;;21.60;49.60;;;;;;4918489;29;20684;-72
2021/12/28 06:41:23;;;;;;;1.60;1.25;;;21.60;49.60;;;;;;4918388;29;20226;-71
2021/12/28 06:43:49;;;;;;;2.72;1.20;;;21.60;49.60;;;;;;4918415;29;20187;-71
2021/12/28 06:46:16;;;;;;;0.80;0.80;;;21.60;49.60;;;;;;4936675;29;20218;-71
2021/12/28 06:48:43;;;;;;;1.08;1.00;;;21.60;49.60;;;;;;4950809;29;20218;-72
2021/12/28 06:51:09;;;;;;;0.80;0.80;;;21.60;49.60;;;;;;4968016;28;20208;-72
2021/12/28 06:53:35;;;;;;;1.08;0.98;;;21.60;49.60;;;;;;4953875;29;20195;-72
2021/12/28 06:56:03;;;;;;;1.20;1.10;;;21.60;49.60;;;;;;4952967;29;20301;-72
2021/12/28 06:58:29;;;;;;;1.08;0.98;;;21.60;49.60;;;;;;4953353;29;20195;-72
2021/12/28 07:00:56;;;;;;;1.17;1.08;;;21.60;49.60;;;;;;4949625;29;20266;-72
2021/12/28 07:03:22;;;;;;;1.00;1.00;;;21.60;49.60;;;;;;4937359;29;20236;-72
2021/12/28 07:05:48;;;;;;;1.23;1.13;;;21.60;49.60;;;;;;4954332;29;20229;-72
2021/12/28 07:08:14;;;;;;;1.10;1.00;;;21.60;49.60;;;;;;4937496;29;20301;-72
2021/12/28 07:10:42;;;;;;;1.10;1.00;;;21.60;49.60;;;;;;4937367;29;20183;-72
2021/12/28 07:13:08;;;;;;;1.08;1.00;;;21.60;49.60;;;;;;4934573;29;20223;-72
2021/12/28 07:15:34;;;;;;;1.00;1.00;;;21.60;49.60;;;;;;4936790;29;20206;-71
2021/12/28 07:18:00;;;;;;;0.95;0.93;;;21.60;49.60;;;;;;4967829;28;20191;-71
2021/12/28 07:20:27;;;;;;;1.15;1.05;;;21.60;49.60;;;;;;4972823;28;20280;-71
2021/12/28 07:22:53;;;;;;;1.05;0.90;;;21.60;49.60;;;;;;4956504;29;20277;-71
2021/12/28 07:25:19;;;;;;;1.08;1.00;;;21.60;49.50;;;;;;4957545;28;20258;-71
2021/12/28 07:27:45;;;;;;;0.90;0.90;;;21.60;49.50;;;;;;4972600;28;20193;-71
2021/12/28 07:30:13;;;;;;;1.13;1.00;;;21.60;49.60;;;;;;4968040;28;20245;-71
2021/12/28 07:32:40;;;;;;;0.88;0.85;;;21.60;49.60;;;;;;4955515;29;20191;-72
2021/12/28 07:35:09;;;;;;;1.02;0.93;;;21.60;49.60;;;;;;4939821;29;20217;-71
2021/12/28 07:37:35;;;;;;;0.90;0.90;;;21.60;49.60;;;;;;4956283;29;20197;-71
2021/12/28 07:40:02;;;;;;;0.93;0.93;;;21.60;49.60;;;;;;4956385;29;20186;-71
2021/12/28 07:42:28;;;;;;;0.85;0.85;;;21.60;49.60;;;;;;4956427;29;20197;-72
2021/12/28 07:44:54;;;;;;;1.05;0.90;;;21.60;49.60;;;;;;4939680;29;20190;-72
2021/12/28 07:47:20;;;;;;;1.00;0.88;;;21.60;49.50;;;;;;4929877;29;20228;-72
2021/12/28 07:49:45;;;;;;;0.88;0.88;;;21.60;49.50;;;;;;4965077;28;20218;-72
2021/12/28 07:52:11;;;;;;;0.85;0.85;;;21.60;49.50;;;;;;4972769;28;20286;-71
2021/12/28 07:54:37;;;;;;;0.80;0.80;;;21.60;49.60;;;;;;4972668;28;20190;-71
2021/12/28 07:57:03;;;;;;;1.13;1.10;;;21.60;49.60;;;;;;4972291;28;20234;-71
2021/12/28 07:59:29;;;;;;;1.20;1.10;;;21.60;49.60;;;;;;4966766;28;20226;-71
2021/12/28 08:01:55;;;;;;;1.30;1.20;;;21.50;49.50;;;;;;4949534;28;20194;-71
2021/12/28 08:04:21;;;;;;;0.75;0.75;;;21.50;49.50;;;;;;4973616;28;20221;-71
2021/12/28 08:06:46;;;;;;;1.00;0.90;;;21.60;49.60;;;;;;4973287;28;20286;-71
2021/12/28 08:09:12;;;;;;;1.05;0.95;;;21.60;49.50;;;;;;4973480;28;20257;-71
2021/12/28 08:11:38;;;;;;;0.80;0.80;;;21.60;49.60;;;;;;4973034;28;20194;-71
2021/12/28 08:14:04;;;;;;;0.80;0.80;;;21.60;49.60;;;;;;4973478;28;20198;-71
2021/12/28 08:16:31;;;;;;;0.80;0.80;;;21.60;49.60;;;;;;4957023;28;20202;-71
2021/12/28 08:18:57;;;;;;;0.80;0.80;;;21.50;49.50;;;;;;4968234;28;20202;-71
2021/12/28 08:21:22;;;;;;;0.73;0.73;;;21.50;49.50;;;;;;4956058;28;20194;-71
2021/12/28 08:23:48;;;;;;;1.10;1.00;;;21.60;49.60;;;;;;4951956;29;20194;-71
2021/12/28 08:26:16;;;;;;;0.80;0.80;;;21.50;49.50;;;;;;4956915;29;20210;-71
2021/12/28 08:28:42;;;;;;;0.95;0.85;;;21.50;49.50;;;;;;4940678;29;20229;-71
2021/12/28 08:31:09;;;;;;;0.90;0.90;;;21.50;49.50;;;;;;4948173;29;20230;-72
2021/12/28 08:33:34;;;;;;;0.80;0.80;;;21.60;49.50;;;;;;4958304;28;20186;-71
2021/12/28 08:36:00;;;;;;;0.82;0.80;;;21.50;50.00;;;;;;4951294;28;20283;-72
2021/12/28 08:38:26;;;;;;;0.80;0.80;;;21.50;49.50;;;;;;4967369;28;20280;-71
2021/12/28 08:40:54;;;;;;;0.70;0.70;;;21.50;49.40;;;;;;4949469;29;20662;-72
2021/12/28 08:43:20;;;;;;;0.60;0.60;;;21.50;49.40;;;;;;4939223;29;20257;-72
2021/12/28 08:45:45;;;;;;;0.80;0.80;;;21.50;49.40;;;;;;4959663;28;20203;-71
2021/12/28 08:48:11;;;;;;;0.63;0.60;;;21.50;49.40;;;;;;4947697;29;20285;-71
2021/12/28 08:50:41;;;;;;;0.60;0.60;;;21.60;49.60;;;;;;4971379;28;20222;-71
2021/12/28 08:53:06;;;;;;;0.60;0.60;;;21.60;49.60;;;;;;4939468;29;20226;-71
2021/12/28 08:55:33;;;;;;;0.80;0.80;;;21.50;49.50;;;;;;4938468;29;20233;-72
2021/12/28 08:57:59;;;;;;;0.90;0.90;;;21.50;49.50;;;;;;4955636;29;20186;-72
2021/12/28 09:00:29;;;;;;;0.70;0.70;;;21.50;49.50;;;;;;4946956;29;20217;-71
2021/12/28 09:02:57;;;;;;;0.70;0.70;;;21.60;49.60;;;;;;4949456;29;20240;-71
2021/12/28 09:05:26;;;;;;;1.15;0.75;;;21.50;49.50;;;;;;4955056;29;20210;-71
2021/12/28 09:07:54;;;;;;;0.98;0.80;;;21.60;49.60;;;;;;4939685;29;20212;-71
2021/12/28 09:10:22;;;;;;;0.80;0.80;;;21.60;49.60;;;;;;4955772;29;20348;-71
2021/12/28 09:12:48;;;;;;;0.73;0.73;;;21.60;49.60;;;;;;4938519;29;20186;-71
2021/12/28 09:15:14;;;;;;;0.60;0.60;;;21.60;49.60;;;;;;4938357;29;20198;-71
2021/12/28 09:17:41;;;;;;;0.80;0.80;;;21.60;49.60;;;;;;4954191;29;20206;-71
2021/12/28 09:20:12;;;;;;;0.60;0.60;;;21.50;49.50;;;;;;4954642;29;20197;-71
2021/12/28 09:22:38;;;;;;;0.80;0.70;;;21.60;49.60;;;;;;4955852;29;20245;-71
2021/12/28 09:25:05;;;;;;;0.80;0.80;;;21.60;49.60;;;;;;4955967;29;20210;-71
2021/12/28 09:27:31;;;;;;;0.70;0.70;;;21.60;49.60;;;;;;4938040;29;20281;-71
2021/12/28 09:29:57;;;;;;;0.75;0.75;;;21.60;49.60;;;;;;4954470;29;20218;-72
2021/12/28 09:32:22;;;;;;;0.77;0.77;;;21.60;49.60;;;;;;4939149;29;20193;-72
2021/12/28 09:34:54;;;;;;;0.70;0.70;;;21.60;49.60;;;;;;4961491;28;20186;-71
2021/12/28 09:37:19;;;;;;;0.60;0.60;;;21.60;49.70;;;;;;4955123;28;20182;-72
2021/12/28 09:39:47;;;;;;;0.60;0.60;;;21.60;49.60;;;;;;4969633;28;20190;-72
2021/12/28 09:42:13;;;;;;;0.60;0.60;;;21.60;49.70;;;;;;4954301;29;20202;-72
2021/12/28 09:44:38;;;;;;;0.50;0.50;;;21.60;49.70;;;;;;4953688;29;20707;-71
2021/12/28 09:47:05;;;;;;;0.80;0.80;;;21.60;49.70;;;;;;4969928;28;20214;-72
2021/12/28 09:49:32;;;;;;;0.75;0.75;;;21.60;49.70;;;;;;4969732;28;20214;-71
2021/12/28 09:52:04;;;;;;;0.70;0.70;;;21.60;49.70;;;;;;4969735;28;20199;-71
2021/12/28 09:54:32;;;;;;;0.80;0.80;;;21.60;49.70;;;;;;4953225;29;20186;-72
2021/12/28 09:57:00;;;;;;;0.55;0.55;;;21.50;49.60;;;;;;4953476;29;20207;-72
2021/12/28 09:59:28;;;;;;;0.60;0.60;;;21.60;49.70;;;;;;4937720;29;20206;-71
2021/12/28 10:01:55;;;;;;;0.60;0.60;;;21.60;49.70;;;;;;4950832;29;20259;-72
2021/12/28 10:04:20;;;;;;;0.70;0.70;;;21.50;49.60;;;;;;4949176;29;20202;-71
2021/12/28 10:06:47;;;;;;;0.60;0.60;;;21.50;49.60;;;;;;4948346;29;20297;-71
2021/12/28 10:09:20;;;;;;;0.60;0.60;;;21.60;49.70;;;;;;4926756;29;20591;-71
2021/12/28 10:11:55;;;;;;;0.60;0.60;;;21.50;49.60;;;;;;4903524;29;20191;-72
2021/12/28 10:14:28;;;;;;;0.77;0.70;;;21.50;49.60;;;;;;4903295;29;20654;-71
2021/12/28 10:17:03;;;;;;;0.60;0.60;;;21.50;49.60;;;;;;4903003;29;20263;-71
2021/12/28 10:19:43;;;;;;;0.68;0.68;;;21.50;49.70;;;;;;4937783;29;20228;-71
2021/12/28 10:22:34;;;;;;;0.60;0.60;;;21.60;49.70;;;;;;4952320;29;20202;-71
2021/12/28 10:25:20;;;;;;;0.63;0.63;;;21.50;49.70;;;;;;4937141;29;20190;-72
2021/12/28 10:27:51;;;;;;;0.85;0.85;;;21.50;49.70;;;;;;4953774;29;20194;-71
2021/12/28 10:30:50;;;;;;;0.65;0.65;;;21.50;49.70;;;;;;4938105;29;20257;-72
2021/12/28 10:33:20;;;;;;;0.40;0.40;;;21.50;49.70;;;;;;4961068;28;20198;-71
2021/12/28 10:35:52;;;;;;;0.60;0.60;;;21.50;49.70;;;;;;4955858;28;20210;-71
2021/12/28 10:38:22;;;;;;;0.57;0.52;;;21.50;49.70;;;;;;4962075;28;20688;-71
2021/12/28 10:40:58;;;;;;;0.60;0.60;;;21.60;49.80;;;;;;4952756;28;20327;-71
2021/12/28 10:43:33;;;;;;;0.60;0.60;;;21.60;49.80;;;;;;4941455;28;20185;-71
2021/12/28 10:46:08;;;;;;;0.70;0.70;;;21.60;49.80;;;;;;4954919;28;20213;-71
2021/12/28 10:48:40;;;;;;;0.55;0.50;;;21.50;49.70;;;;;;4960911;28;20217;-71
2021/12/28 10:51:18;;;;;;;0.60;0.60;;;21.50;49.70;;;;;;4961372;28;20210;-71
2021/12/28 10:56:47;;;;;;;0.52;0.52;;;21.50;49.80;;;;;;4972406;28;20225;-70
2021/12/28 10:59:14;;;;;;;1.05;0.60;;;21.50;49.80;;;;;;4972575;28;20238;-71
2021/12/28 11:01:42;;;;;;;0.73;0.70;;;21.50;49.80;;;;;;4956365;28;20578;-70
2021/12/28 11:04:14;;;;;;;0.80;0.70;;;21.60;49.80;;;;;;4946103;29;20194;-71
2021/12/28 11:06:50;;;;;;;0.60;0.60;;;21.50;49.80;;;;;;4920966;29;20230;-71
2021/12/28 11:09:18;;;;;;;0.52;0.50;;;21.60;49.90;;;;;;4921124;29;20218;-71
2021/12/28 11:11:46;;;;;;;0.98;0.70;;;21.60;49.90;;;;;;4905174;29;20234;-71
2021/12/28 11:14:19;;;;;;;0.60;0.50;;;21.50;49.80;;;;;;4944227;29;20265;-70
2021/12/28 11:16:54;;;;;;;1.13;0.60;;;21.60;49.90;;;;;;4954601;29;20257;-71
2021/12/28 11:19:34;;;;;;;0.85;0.60;;;21.60;49.90;;;;;;4947624;29;20558;-71
2021/12/28 11:22:08;;;;;;;0.70;0.70;;;21.60;49.90;;;;;;4955870;29;20189;-71
2021/12/28 11:24:40;;;;;;;0.50;0.50;;;21.60;49.90;;;;;;4956051;29;20254;-71
2021/12/28 11:27:07;;;;;;;0.50;0.50;;;21.60;49.90;;;;;;4953393;29;20301;-72
2021/12/28 11:29:39;;;;;;;0.75;0.75;;;21.60;49.90;;;;;;4957212;29;20210;-72
2021/12/28 11:32:17;;;;;;;0.60;0.60;;;21.60;49.90;;;;;;4955445;29;20208;-72
2021/12/28 11:34:46;;;;;;;0.65;0.50;;;21.60;49.90;;;;;;4959227;28;20188;-72
2021/12/28 11:37:20;;;;;;;0.60;0.60;;;21.60;50.00;;;;;;4936799;28;20201;-72
2021/12/28 11:39:52;;;;;;;0.85;0.60;;;21.60;50.00;;;;;;4964816;28;20183;-72
2021/12/28 11:42:22;;;;;;;0.73;0.60;;;21.60;50.00;;;;;;4958435;28;20182;-72
2021/12/28 11:44:49;;;;;;;0.68;0.68;;;21.60;50.00;;;;;;4955475;29;20230;-71
2021/12/28 11:47:16;;;;;;;0.80;0.70;;;21.60;50.00;;;;;;4972021;28;20574;-71
2021/12/28 11:49:44;;;;;;;0.90;0.70;;;21.60;50.00;;;;;;4958028;28;20218;-72
2021/12/28 11:52:19;;;;;;;0.68;0.63;;;21.60;50.00;;;;;;4972798;28;20194;-75
2021/12/28 11:54:50;;;;;;;1.02;0.65;;;21.60;50.10;;;;;;4955811;29;20189;-72
2021/12/28 11:57:26;;;;;;;1.00;0.90;;;21.60;50.20;;;;;;4943183;29;20194;-72
2021/12/28 12:00:10;;;;;;;0.52;0.50;;;21.60;50.10;;;;;;4954247;29;20662;-72
2021/12/28 12:02:47;;;;;;;0.68;0.60;;;21.60;50.20;;;;;;4959241;28;20201;-72
2021/12/28 12:05:23;;;;;;;0.93;0.75;;;21.60;50.10;;;;;;4956123;29;20236;-72
2021/12/28 12:08:13;;;;;;;2.15;0.82;;;21.60;50.20;;;;;;4943694;29;20248;-72
2021/12/28 12:10:45;;;;;;;0.88;0.65;;;21.60;50.10;;;;;;4939202;29;20237;-71
2021/12/28 12:13:24;;;;;;;0.80;0.80;;;21.60;50.10;;;;;;4935986;29;20195;-72
2021/12/28 12:15:58;;;;;;;0.63;0.60;;;21.60;50.20;;;;;;4939648;29;20708;-71
2021/12/28 12:18:43;;;;;;;0.80;0.70;;;21.60;50.10;;;;;;4905127;29;20195;-71
2021/12/28 12:21:17;;;;;;;1.48;0.50;;;21.60;50.10;;;;;;4936830;29;20191;-71
2021/12/28 12:23:54;;;;;;;1.58;0.70;;;21.60;50.10;;;;;;4919985;29;20187;-71
2021/12/28 12:26:33;;;;;;;1.33;0.68;;;21.60;50.20;;;;;;4951740;29;20218;-71
2021/12/28 12:29:01;;;;;;;0.68;0.60;;;21.60;50.20;;;;;;4904770;29;20288;-71
2021/12/28 12:31:35;;;;;;;0.80;0.80;;;21.60;50.20;;;;;;4904986;29;20190;-71
2021/12/28 12:34:05;;;;;;;0.77;0.73;;;21.60;50.20;;;;;;4928620;29;20225;-71
2021/12/28 12:36:41;;;;;;;0.80;0.60;;;21.60;50.20;;;;;;4956473;28;20210;-71
2021/12/28 12:39:09;;;;;;;0.70;0.70;;;21.60;50.20;;;;;;4957317;28;20185;-71
2021/12/28 12:41:49;;;;;;;0.50;0.50;;;21.60;50.20;;;;;;4952908;28;20205;-71
2021/12/28 12:44:22;;;;;;;1.30;1.20;;;21.60;50.20;;;;;;4923428;29;20217;-68
2021/12/28 12:46:52;;;;;;;0.70;0.70;;;21.60;50.20;;;;;;4922306;29;20217;-68
2021/12/28 12:49:31;;;;;;;1.15;0.80;;;21.60;50.20;;;;;;4937711;29;20226;-68
2021/12/28 12:52:20;;;;;;;0.70;0.70;;;21.60;50.20;;;;;;4954099;29;20186;-68
2021/12/28 12:54:52;;;;;;;0.52;0.52;;;21.60;50.20;;;;;;4954131;29;20190;-68
2021/12/28 12:57:28;;;;;;;0.73;0.60;;;21.60;50.20;;;;;;4938448;29;20183;-68
2021/12/28 13:00:00;;;;;;;0.88;0.70;;;21.60;50.20;;;;;;4954415;29;20281;-68
2021/12/28 13:02:31;;;;;;;0.85;0.77;;;21.60;50.20;;;;;;4954260;29;20233;-69